Time;durP1;ratioP1;P1;durP2;ratioP2;P2;SDS_P1;SDS_P2;PMS_P1;PMS_P2;Temp;Humidity;BMP_temperature;BMP_pressure;BME280_temperature;BME280_humidity;BME280_pressure;Samples;Min_cycle;Max_cycle;Signal;HPM_P1;HPM_P2
2023/08/23 00:00:06;;;;;;;10.02;8.20;;;;;;;20.85;63.37;96623.44;5052827;28;20060;-69
2023/08/23 00:02:33;;;;;;;10.07;8.90;;;;;;;20.86;63.93;96625.13;5052982;28;20049;-68
2023/08/23 00:05:01;;;;;;;15.68;8.27;;;;;;;20.83;63.85;96625.38;5052863;28;20049;-69
2023/08/23 00:07:28;;;;;;;10.25;8.00;;;;;;;20.79;63.56;96627.44;5053010;28;20437;-68
2023/08/23 00:09:55;;;;;;;10.05;8.82;;;;;;;20.79;63.48;96630.09;5052960;28;20511;-69
2023/08/23 00:12:22;;;;;;;10.18;9.18;;;;;;;20.81;63.70;96620.19;5052925;28;20465;-69
2023/08/23 00:14:49;;;;;;;14.68;9.02;;;;;;;20.80;63.81;96630.94;5052585;28;20553;-68
2023/08/23 00:17:16;;;;;;;8.68;7.78;;;;;;;20.76;63.44;96627.66;5052711;28;20089;-69
2023/08/23 00:19:45;;;;;;;10.27;9.20;;;;;;;20.75;64.35;96630.44;5052597;28;20111;-69
2023/08/23 00:22:14;;;;;;;10.27;8.63;;;;;;;20.68;64.34;96632.75;5052675;28;20045;-68
2023/08/23 00:24:41;;;;;;;11.20;9.02;;;;;;;20.65;64.28;96630.31;5052682;28;20056;-69
2023/08/23 00:27:08;;;;;;;10.63;8.95;;;;;;;20.62;64.37;96628.72;5052589;28;20099;-69
2023/08/23 00:29:35;;;;;;;10.68;8.23;;;;;;;20.58;64.18;96632.59;5052571;28;20049;-68
2023/08/23 00:32:02;;;;;;;10.23;9.15;;;;;;;20.51;64.86;96637.56;5052593;28;20049;-68
2023/08/23 00:34:29;;;;;;;12.75;8.95;;;;;;;20.46;65.24;96637.03;5052467;28;20049;-68
2023/08/23 00:36:56;;;;;;;10.60;9.10;;;;;;;20.40;65.14;96633.06;5052595;28;20106;-68
2023/08/23 00:39:24;;;;;;;10.68;8.88;;;;;;;20.31;65.90;96631.97;5052492;28;20509;-68
2023/08/23 00:41:51;;;;;;;9.93;8.93;;;;;;;20.26;65.66;96633.28;5052481;28;20084;-68
2023/08/23 00:44:19;;;;;;;12.40;9.70;;;;;;;20.23;66.05;96628.19;5052563;28;20041;-68
2023/08/23 00:46:46;;;;;;;10.73;9.10;;;;;;;20.20;66.47;96634.59;5052414;28;20132;-68
2023/08/23 00:49:13;;;;;;;11.20;9.65;;;;;;;20.17;66.67;96635.66;5052432;28;20106;-68
2023/08/23 00:51:42;;;;;;;12.68;10.15;;;;;;;20.13;66.64;96630.69;5052522;28;20045;-68
2023/08/23 00:54:11;;;;;;;10.68;9.65;;;;;;;20.09;66.99;96632.75;5054359;28;20045;-68
2023/08/23 00:56:39;;;;;;;11.32;10.15;;;;;;;20.06;67.12;96639.13;5056081;28;20049;-68
2023/08/23 00:59:08;;;;;;;10.60;9.50;;;;;;;20.07;67.12;96645.28;5056310;28;20045;-68
2023/08/23 01:01:35;;;;;;;10.77;9.68;;;;;;;20.04;67.45;96635.75;5055998;28;20045;-68
2023/08/23 01:04:03;;;;;;;14.88;10.63;;;;;;;20.05;67.40;96640.06;5055783;28;20140;-68
2023/08/23 01:06:39;;;;;;;13.00;9.48;;;;;;;20.05;67.33;96644.56;5055847;28;20056;-68
2023/08/23 01:09:15;;;;;;;13.75;10.52;;;;;;;20.02;67.32;96642.13;5055896;28;20053;-68
2023/08/23 01:11:52;;;;;;;12.18;10.80;;;;;;;20.00;67.47;96639.56;5055855;28;20099;-68
2023/08/23 01:14:23;;;;;;;13.00;9.77;;;;;;;20.03;67.61;96634.06;5055910;28;20085;-68
2023/08/23 01:16:51;;;;;;;13.77;10.80;;;;;;;20.06;67.69;96636.47;5055831;28;20075;-68
2023/08/23 01:19:46;;;;;;;12.10;10.93;;;;;;;20.02;67.75;96639.47;5055749;28;20098;-68
2023/08/23 01:22:18;;;;;;;13.93;10.68;;;;;;;20.01;67.70;96635.97;5055379;28;20471;-68
2023/08/23 01:24:47;;;;;;;11.27;10.18;;;;;;;19.99;67.73;96637.88;5055602;28;20124;-69
2023/08/23 01:27:16;;;;;;;12.50;11.20;;;;;;;19.94;68.05;96632.91;5055578;28;20107;-68
2023/08/23 01:29:44;;;;;;;11.63;10.52;;;;;;;19.94;67.81;96630.25;5055435;28;20056;-68
2023/08/23 01:32:24;;;;;;;11.48;10.27;;;;;;;19.94;67.55;96627.59;5055318;28;20499;-68
2023/08/23 01:34:56;;;;;;;12.48;11.15;;;;;;;19.95;67.74;96631.94;5055487;28;20123;-68
2023/08/23 01:37:25;;;;;;;11.00;9.98;;;;;;;19.91;68.17;96641.09;5055344;28;20120;-68
2023/08/23 01:39:56;;;;;;;12.10;10.32;;;;;;;19.93;67.85;96627.72;5055329;28;20410;-68
2023/08/23 01:42:23;;;;;;;11.23;10.13;;;;;;;19.94;67.71;96632.06;5055345;28;20110;-68
2023/08/23 01:44:51;;;;;;;11.68;10.60;;;;;;;19.93;68.01;96631.19;5055291;28;20107;-69
2023/08/23 01:47:19;;;;;;;14.13;11.27;;;;;;;19.92;67.88;96626.84;5055157;28;20052;-68
2023/08/23 01:49:46;;;;;;;12.40;10.85;;;;;;;19.94;68.31;96621.44;5055158;28;20041;-68
2023/08/23 01:52:13;;;;;;;14.70;10.95;;;;;;;19.89;68.35;96619.13;5055096;28;20044;-68
2023/08/23 01:54:40;;;;;;;11.73;10.63;;;;;;;19.91;68.37;96616.34;5054993;28;20044;-69
2023/08/23 01:57:08;;;;;;;12.45;11.25;;;;;;;19.89;68.39;96620.91;5054900;28;20049;-68
2023/08/23 01:59:37;;;;;;;12.38;11.00;;;;;;;19.88;68.30;96621.88;5054899;28;20041;-68
2023/08/23 02:02:04;;;;;;;12.68;10.68;;;;;;;19.89;68.47;96616.47;5054820;28;20490;-69
2023/08/23 02:04:31;;;;;;;12.07;10.35;;;;;;;19.83;68.68;96627.53;5054176;28;20438;-68
2023/08/23 02:06:58;;;;;;;12.48;11.32;;;;;;;19.80;68.76;96618.00;5054221;28;20055;-68
2023/08/23 02:09:26;;;;;;;13.18;10.75;;;;;;;19.77;68.70;96615.56;5054721;28;20106;-68
2023/08/23 02:11:53;;;;;;;15.88;11.45;;;;;;;19.79;68.68;96623.44;5054669;28;20045;-68
2023/08/23 02:14:22;;;;;;;13.40;10.70;;;;;;;19.79;68.82;96628.72;5054513;28;20494;-69
2023/08/23 02:16:49;;;;;;;12.10;10.63;;;;;;;19.75;68.81;96628.09;5054658;28;20044;-68
2023/08/23 02:19:16;;;;;;;12.23;10.80;;;;;;;19.72;69.01;96619.53;5054586;28;20149;-68
2023/08/23 02:21:43;;;;;;;15.57;11.05;;;;;;;19.66;69.43;96619.00;5054609;28;20140;-68
2023/08/23 02:24:10;;;;;;;14.15;11.20;;;;;;;19.66;69.24;96618.19;5054396;28;20056;-68
2023/08/23 02:26:37;;;;;;;12.20;10.65;;;;;;;19.64;68.94;96617.44;5054646;28;20072;-68
2023/08/23 02:29:05;;;;;;;13.18;10.25;;;;;;;19.53;69.64;96616.44;5054280;28;20049;-69
2023/08/23 02:31:33;;;;;;;12.40;11.13;;;;;;;19.53;69.57;96615.56;5054273;28;20091;-68
2023/08/23 02:34:00;;;;;;;12.20;10.98;;;;;;;19.51;69.63;96618.34;5054312;28;20052;-68
2023/08/23 02:36:27;;;;;;;14.55;10.75;;;;;;;19.54;69.35;96620.78;5054617;28;20048;-68
2023/08/23 02:38:55;;;;;;;12.35;10.80;;;;;;;19.54;69.47;96615.47;5054430;28;20045;-68
2023/08/23 02:41:22;;;;;;;14.55;10.50;;;;;;;19.54;69.42;96619.94;5054120;28;20067;-68
2023/08/23 02:43:49;;;;;;;12.43;11.05;;;;;;;19.50;69.78;96624.63;5053912;28;20070;-68
2023/08/23 02:46:16;;;;;;;16.20;11.32;;;;;;;19.50;69.80;96621.13;5053952;28;20106;-68
2023/08/23 02:48:44;;;;;;;12.38;11.15;;;;;;;19.47;70.10;96626.66;5053867;28;20084;-68
2023/08/23 02:51:11;;;;;;;11.70;10.48;;;;;;;19.45;70.25;96622.28;5053905;28;20132;-68
2023/08/23 02:53:38;;;;;;;12.27;11.18;;;;;;;19.38;70.06;96618.41;5054053;28;20079;-68
2023/08/23 02:56:05;;;;;;;12.07;10.70;;;;;;;19.37;70.42;96610.56;5053887;28;20564;-69
2023/08/23 02:58:32;;;;;;;14.02;11.48;;;;;;;19.36;69.95;96622.13;5053833;28;20057;-69
2023/08/23 03:01:01;;;;;;;12.57;11.32;;;;;;;19.33;70.04;96612.59;5054128;28;20041;-68
2023/08/23 03:03:28;;;;;;;16.60;11.25;;;;;;;19.29;70.17;96619.06;5053562;28;20056;-68
2023/08/23 03:05:58;;;;;;;12.88;11.55;;;;;;;19.25;70.41;96615.78;5053684;28;20128;-68
2023/08/23 03:08:25;;;;;;;11.30;10.23;;;;;;;19.26;70.59;96620.13;5053751;28;20049;-68
2023/08/23 03:10:53;;;;;;;11.77;10.45;;;;;;;19.27;70.47;96615.69;5053853;28;20060;-69
2023/08/23 03:13:20;;;;;;;15.15;10.60;;;;;;;19.22;70.79;96615.16;5053390;28;20084;-68
2023/08/23 03:15:54;;;;;;;12.32;11.13;;;;;;;19.19;70.97;96613.59;5053508;28;20124;-69
2023/08/23 03:18:21;;;;;;;13.38;11.25;;;;;;;19.17;70.75;96615.50;5053737;28;20072;-68
2023/08/23 03:20:49;;;;;;;13.52;10.38;;;;;;;19.18;70.90;96620.69;5053130;28;20419;-68
2023/08/23 03:23:18;;;;;;;14.80;11.07;;;;;;;19.22;70.65;96620.47;5053341;28;20045;-69
2023/08/23 03:25:45;;;;;;;12.20;10.90;;;;;;;19.17;71.08;96615.50;5053339;28;20056;-70
2023/08/23 03:28:13;;;;;;;13.10;11.75;;;;;;;19.14;71.42;96619.22;5053168;28;20080;-69
2023/08/23 03:30:40;;;;;;;13.95;12.13;;;;;;;19.13;71.39;96617.53;5053115;28;20083;-69
2023/08/23 03:33:07;;;;;;;13.85;11.40;;;;;;;19.16;71.23;96621.75;5053341;28;20045;-69
2023/08/23 03:35:35;;;;;;;12.57;11.32;;;;;;;19.13;71.38;96619.31;5053238;28;20052;-69
2023/08/23 03:38:02;;;;;;;14.15;11.15;;;;;;;19.16;71.17;96622.63;5053318;28;20049;-69
2023/08/23 03:40:35;;;;;;;15.68;11.75;;;;;;;19.17;71.25;96624.28;5053066;28;20449;-69
2023/08/23 03:43:02;;;;;;;12.13;10.88;;;;;;;19.15;71.48;96623.53;5053033;28;20049;-69
2023/08/23 03:45:29;;;;;;;12.57;10.95;;;;;;;19.16;71.35;96613.81;5053034;28;20052;-69
2023/08/23 03:47:56;;;;;;;12.52;11.23;;;;;;;19.18;71.44;96619.84;5053071;28;20049;-69
2023/08/23 03:50:24;;;;;;;11.80;10.63;;;;;;;19.18;71.42;96617.19;5052969;28;20055;-69
2023/08/23 03:52:51;;;;;;;12.25;10.98;;;;;;;19.23;71.51;96620.34;5053266;28;20414;-69
2023/08/23 03:55:18;;;;;;;13.02;11.90;;;;;;;19.23;71.38;96623.00;5052937;28;20055;-70
2023/08/23 03:57:47;;;;;;;13.77;10.70;;;;;;;19.27;71.06;96621.81;5052959;28;20045;-69
2023/08/23 04:00:15;;;;;;;11.68;10.48;;;;;;;19.32;71.01;96621.50;5052841;28;20544;-69
2023/08/23 04:02:43;;;;;;;40.05;12.63;;;;;;;19.36;70.87;96625.63;5052752;28;20080;-70
2023/08/23 04:05:11;;;;;;;17.10;12.00;;;;;;;19.41;71.12;96615.53;5052768;28;20057;-69
2023/08/23 04:07:39;;;;;;;11.98;10.60;;;;;;;19.41;71.13;96614.66;5052962;28;20045;-69
2023/08/23 04:10:08;;;;;;;12.50;11.27;;;;;;;19.62;71.13;96622.88;5052828;28;20102;-69
2023/08/23 04:12:35;;;;;;;17.23;11.20;;;;;;;19.92;70.35;96620.69;5052784;28;20103;-69
2023/08/23 04:15:05;;;;;;;13.75;10.05;;;;;;;20.18;69.19;96616.13;5052828;28;20115;-69
2023/08/23 04:17:32;;;;;;;11.23;10.10;;;;;;;20.53;67.93;96617.00;5052889;28;20464;-70
2023/08/23 04:19:59;;;;;;;11.35;9.77;;;;;;;20.92;66.80;96616.69;5052465;28;20438;-70
2023/08/23 04:22:26;;;;;;;12.82;9.48;;;;;;;21.31;65.18;96620.78;5052785;28;20049;-70
2023/08/23 04:24:53;;;;;;;16.30;8.52;;;;;;;21.68;64.18;96625.75;5052554;28;20136;-70
2023/08/23 04:27:20;;;;;;;12.95;9.85;;;;;;;22.01;62.32;96620.47;5052637;28;20053;-70
2023/08/23 04:29:47;;;;;;;10.10;8.70;;;;;;;22.36;61.57;96623.75;5055962;28;20045;-69
2023/08/23 04:32:16;;;;;;;12.07;9.32;;;;;;;22.78;61.12;96627.41;5056578;28;20049;-70
2023/08/23 04:34:43;;;;;;;9.18;8.27;;;;;;;23.23;59.65;96627.00;5056561;28;20498;-70
2023/08/23 04:37:10;;;;;;;8.57;7.80;;;;;;;23.64;58.38;96631.47;5056612;28;20495;-70
2023/08/23 04:39:37;;;;;;;9.40;8.43;;;;;;;24.08;57.38;96638.25;5056475;28;20480;-69
2023/08/23 04:42:05;;;;;;;13.10;7.80;;;;;;;24.52;56.41;96639.59;5056376;28;20103;-69
2023/08/23 04:44:32;;;;;;;9.60;8.00;;;;;;;24.85;55.23;96637.41;5056278;28;20893;-69
2023/08/23 04:46:59;;;;;;;8.30;7.50;;;;;;;25.30;54.18;96635.84;5056278;28;20071;-70
2023/08/23 04:49:28;;;;;;;9.38;8.27;;;;;;;25.74;52.62;96637.03;5056223;28;20048;-70
2023/08/23 04:51:55;;;;;;;13.05;7.88;;;;;;;26.15;51.76;96644.56;5056234;28;20087;-70
2023/08/23 04:54:22;;;;;;;8.50;7.55;;;;;;;26.59;50.72;96634.88;5056215;28;20128;-69
2023/08/23 04:56:49;;;;;;;10.13;7.53;;;;;;;27.03;50.53;96633.97;5056099;28;20044;-70
2023/08/23 04:59:16;;;;;;;7.65;6.85;;;;;;;27.43;49.79;96631.63;5056057;28;20076;-70
2023/08/23 05:01:44;;;;;;;10.13;7.32;;;;;;;27.76;48.49;96630.91;5056014;28;20084;-69
2023/08/23 05:04:11;;;;;;;13.05;7.43;;;;;;;28.17;47.85;96638.16;5056101;28;20126;-70
2023/08/23 05:06:40;;;;;;;10.38;7.05;;;;;;;28.54;47.45;96630.63;5055873;28;20102;-69
2023/08/23 05:09:08;;;;;;;8.30;7.43;;;;;;;28.86;45.69;96626.16;5056097;28;20053;-69
2023/08/23 05:11:35;;;;;;;7.88;7.10;;;;;;;29.20;45.75;96620.69;5055849;28;20116;-70
2023/08/23 05:14:02;;;;;;;8.45;6.75;;;;;;;29.63;45.99;96621.19;5055803;28;20063;-69
2023/08/23 05:16:29;;;;;;;8.60;6.95;;;;;;;30.02;45.46;96630.19;5055689;28;20128;-69
2023/08/23 05:18:57;;;;;;;11.48;7.45;;;;;;;30.31;44.73;96622.38;5055867;28;20053;-70
2023/08/23 05:21:24;;;;;;;9.98;6.55;;;;;;;30.55;44.03;96627.75;5055390;28;20445;-69
2023/08/23 05:23:52;;;;;;;10.18;7.20;;;;;;;30.83;44.18;96627.16;5055477;28;20483;-69
2023/08/23 05:26:20;;;;;;;7.85;6.72;;;;;;;31.13;42.97;96622.59;5055620;28;20435;-69
2023/08/23 05:28:47;;;;;;;9.85;6.90;;;;;;;31.39;42.64;96628.53;5055575;28;20052;-70
2023/08/23 05:31:15;;;;;;;9.43;6.55;;;;;;;31.58;42.85;96626.28;5055451;28;20077;-69
2023/08/23 05:33:42;;;;;;;8.30;6.82;;;;;;;31.89;42.89;96628.69;5055410;28;20049;-69
2023/08/23 05:36:09;;;;;;;9.48;6.78;;;;;;;32.15;40.52;96621.06;5055362;28;20479;-69
2023/08/23 05:38:36;;;;;;;7.60;6.88;;;;;;;32.50;41.35;96626.56;5055262;28;20045;-69
2023/08/23 05:41:05;;;;;;;7.45;6.45;;;;;;;32.82;40.83;96636.16;5055299;28;20124;-69
2023/08/23 05:43:32;;;;;;;8.35;6.47;;;;;;;33.06;40.92;96634.88;5055236;28;20067;-69
2023/08/23 05:45:59;;;;;;;8.98;6.72;;;;;;;33.32;40.94;96627.94;5055182;28;20084;-69
2023/08/23 05:48:27;;;;;;;6.75;6.13;;;;;;;33.51;40.00;96631.75;5055086;28;20049;-70
2023/08/23 05:50:54;;;;;;;7.90;6.40;;;;;;;33.74;40.20;96630.59;5055052;28;20132;-69
2023/08/23 05:53:22;;;;;;;10.23;6.60;;;;;;;34.02;39.22;96626.06;5055302;28;20052;-70
2023/08/23 05:55:50;;;;;;;6.80;6.10;;;;;;;34.27;38.91;96633.63;5055040;28;20057;-69
2023/08/23 05:58:19;;;;;;;10.02;6.68;;;;;;;34.46;37.21;96631.94;5055003;28;20049;-69
2023/08/23 06:00:48;;;;;;;9.63;6.97;;;;;;;34.59;35.18;96631.13;5055314;28;20049;-69
2023/08/23 06:03:15;;;;;;;13.68;6.88;;;;;;;34.72;35.09;96630.31;5055133;28;20098;-69
2023/08/23 06:05:43;;;;;;;9.50;6.60;;;;;;;34.91;35.55;96636.75;5055199;28;20056;-69
2023/08/23 06:08:10;;;;;;;10.77;6.95;;;;;;;35.08;35.17;96635.44;5054824;28;20134;-69
2023/08/23 06:10:37;;;;;;;9.35;6.97;;;;;;;35.28;35.78;96635.44;5054750;28;20128;-69
2023/08/23 06:13:05;;;;;;;12.13;6.15;;;;;;;35.41;35.98;96634.53;5054787;28;20084;-69
2023/08/23 06:15:34;;;;;;;8.27;6.43;;;;;;;35.59;35.20;96633.81;5054528;28;20048;-69
2023/08/23 06:18:01;;;;;;;7.57;6.88;;;;;;;35.75;35.26;96637.94;5054703;28;20045;-68
2023/08/23 06:20:28;;;;;;;10.00;7.00;;;;;;;35.99;35.72;96638.22;5054306;28;20118;-69
2023/08/23 06:22:56;;;;;;;10.63;6.32;;;;;;;36.14;32.36;96643.34;5054416;28;20525;-68
2023/08/23 06:25:23;;;;;;;9.30;6.53;;;;;;;36.37;33.09;96641.97;5054679;28;20122;-69
2023/08/23 06:27:51;;;;;;;8.38;6.60;;;;;;;36.57;32.83;96634.69;5054421;28;20059;-69
2023/08/23 06:30:18;;;;;;;9.55;6.30;;;;;;;36.75;32.06;96634.72;5054329;28;20045;-69
2023/08/23 06:32:50;;;;;;;8.05;6.30;;;;;;;36.88;32.57;96641.13;5054407;28;20052;-69
2023/08/23 06:35:17;;;;;;;8.18;6.60;;;;;;;37.01;31.47;96643.72;5054225;28;20045;-69
2023/08/23 06:37:45;;;;;;;13.75;6.60;;;;;;;36.86;31.02;96640.50;5054155;28;20506;-69
2023/08/23 06:40:16;;;;;;;7.55;6.60;;;;;;;37.06;32.10;96637.59;5054203;28;20102;-69
2023/08/23 06:42:43;;;;;;;6.90;6.03;;;;;;;37.21;30.69;96647.28;5054200;28;20057;-69
2023/08/23 06:45:11;;;;;;;9.88;5.85;;;;;;;37.28;29.33;96648.88;5054057;28;20049;-69
2023/08/23 06:47:38;;;;;;;6.65;5.95;;;;;;;37.39;28.13;96646.47;5053919;28;20506;-69
2023/08/23 06:50:08;;;;;;;9.82;5.60;;;;;;;37.40;28.65;96646.22;5054177;28;20084;-69
2023/08/23 06:52:35;;;;;;;5.82;5.18;;;;;;;37.35;26.42;96654.25;5053504;28;20486;-69
2023/08/23 06:55:03;;;;;;;7.35;5.45;;;;;;;36.96;26.81;96650.91;5054211;28;20053;-69
2023/08/23 06:57:30;;;;;;;10.80;5.20;;;;;;;36.92;27.28;96645.91;5053793;28;20085;-69
2023/08/23 06:59:58;;;;;;;8.43;4.85;;;;;;;37.16;27.21;96646.06;5053777;28;20052;-69
2023/08/23 07:02:26;;;;;;;7.00;5.28;;;;;;;37.41;27.15;96650.63;5053762;28;20449;-69
2023/08/23 07:04:53;;;;;;;5.85;5.25;;;;;;;37.67;26.54;96647.78;5053709;28;20570;-69
2023/08/23 07:07:23;;;;;;;7.68;5.20;;;;;;;37.63;26.79;96643.84;5053512;28;20055;-69
2023/08/23 07:09:51;;;;;;;7.63;5.15;;;;;;;37.73;26.23;96649.63;5053651;28;20041;-68
2023/08/23 07:12:18;;;;;;;10.10;5.15;;;;;;;37.35;25.29;96646.06;5053591;28;20707;-69
2023/08/23 07:14:49;;;;;;;7.38;4.90;;;;;;;36.87;26.68;96642.19;5053598;28;20054;-69
2023/08/23 07:17:16;;;;;;;5.97;5.25;;;;;;;36.43;26.64;96637.50;5053398;28;20063;-69
2023/08/23 07:19:44;;;;;;;6.80;5.00;;;;;;;36.21;26.71;96631.63;5053200;28;20525;-69
2023/08/23 07:22:11;;;;;;;7.13;5.03;;;;;;;36.25;26.63;96635.56;5053391;28;20045;-68
2023/08/23 07:24:40;;;;;;;8.85;5.00;;;;;;;36.13;28.18;96633.53;5053320;28;20594;-69
2023/08/23 07:27:07;;;;;;;7.82;5.28;;;;;;;35.97;28.43;96626.75;5053391;28;20474;-68
2023/08/23 07:29:36;;;;;;;9.90;5.22;;;;;;;35.56;27.03;96622.53;5053235;28;20056;-68
2023/08/23 07:32:05;;;;;;;8.43;5.50;;;;;;;35.13;28.31;96627.50;5053240;28;20053;-68
2023/08/23 07:34:33;;;;;;;5.38;4.88;;;;;;;35.07;28.53;96626.47;5053550;28;20048;-68
2023/08/23 07:37:00;;;;;;;7.78;5.13;;;;;;;35.05;27.97;96620.41;5053251;28;20049;-68
2023/08/23 07:39:28;;;;;;;6.03;4.88;;;;;;;35.49;28.75;96619.88;5053149;28;20380;-68
2023/08/23 07:41:56;;;;;;;8.50;5.35;;;;;;;35.59;27.43;96617.50;5053007;28;20045;-68
2023/08/23 07:44:24;;;;;;;6.20;5.22;;;;;;;35.35;27.37;96625.34;5053142;28;20052;-68
2023/08/23 07:46:51;;;;;;;5.65;5.03;;;;;;;35.14;27.66;96621.84;5052956;28;20135;-68
2023/08/23 07:49:19;;;;;;;6.70;5.57;;;;;;;35.27;26.99;96623.72;5053144;28;20795;-68
2023/08/23 07:51:48;;;;;;;8.68;5.43;;;;;;;35.38;27.42;96618.66;5053129;28;20048;-68
2023/08/23 07:54:15;;;;;;;7.30;5.13;;;;;;;35.66;29.59;96623.75;5053037;28;20486;-68
2023/08/23 07:56:43;;;;;;;6.32;5.68;;;;;;;36.02;27.44;96616.03;5052930;28;20045;-69
2023/08/23 07:59:11;;;;;;;8.60;4.97;;;;;;;36.46;26.19;96618.03;5052965;28;20128;-69
2023/08/23 08:01:39;;;;;;;9.45;5.70;;;;;;;36.79;26.06;96616.06;5052955;28;20045;-69
2023/08/23 08:04:06;;;;;;;5.65;4.85;;;;;;;36.93;26.48;96608.59;5054859;28;20128;-69
2023/08/23 08:06:33;;;;;;;6.18;5.57;;;;;;;37.32;25.40;96608.38;5057080;28;20044;-68
2023/08/23 08:09:00;;;;;;;12.15;5.32;;;;;;;37.59;25.48;96613.47;5056933;28;20487;-69
2023/08/23 08:11:28;;;;;;;7.00;5.30;;;;;;;37.04;25.29;96607.84;5056886;28;20071;-69
2023/08/23 08:13:55;;;;;;;7.20;5.35;;;;;;;36.86;25.59;96607.81;5056942;28;20048;-68
2023/08/23 08:16:23;;;;;;;7.30;5.10;;;;;;;36.64;26.30;96608.22;5056730;28;20142;-69
2023/08/23 08:18:51;;;;;;;9.45;5.75;;;;;;;36.59;25.88;96605.34;5056890;28;20045;-69
2023/08/23 08:21:19;;;;;;;7.63;5.60;;;;;;;36.78;27.10;96606.22;5056504;28;20048;-69
2023/08/23 08:23:47;;;;;;;8.57;5.80;;;;;;;36.81;26.24;96602.22;5057035;28;20048;-69
2023/08/23 08:26:16;;;;;;;6.63;5.00;;;;;;;36.69;26.26;96611.13;5056806;28;20132;-69
2023/08/23 08:28:45;;;;;;;7.68;5.38;;;;;;;37.00;25.42;96613.97;5056737;28;20066;-69
2023/08/23 08:31:13;;;;;;;7.47;5.15;;;;;;;37.08;24.55;96610.91;5056626;28;20049;-69
2023/08/23 08:33:43;;;;;;;10.27;5.20;;;;;;;37.00;25.05;96608.50;5056514;28;20051;-69
2023/08/23 08:36:12;;;;;;;11.10;5.43;;;;;;;36.94;25.08;96612.97;5056611;28;20083;-69
2023/08/23 08:38:39;;;;;;;9.75;5.75;;;;;;;36.88;25.57;96608.44;5056645;28;20120;-68
2023/08/23 08:41:08;;;;;;;12.85;5.28;;;;;;;36.93;25.41;96614.03;5056551;28;20136;-69
2023/08/23 08:43:36;;;;;;;7.18;5.22;;;;;;;36.83;24.88;96617.28;5056454;28;20496;-69
2023/08/23 08:46:07;;;;;;;9.18;5.75;;;;;;;37.01;25.63;96602.00;5056397;28;20088;-68
2023/08/23 08:48:34;;;;;;;7.13;5.15;;;;;;;37.38;25.27;96599.28;5056439;28;20049;-69
2023/08/23 08:51:04;;;;;;;8.15;5.38;;;;;;;37.44;24.79;96600.28;5056232;28;20072;-69
2023/08/23 08:53:33;;;;;;;7.13;4.93;;;;;;;37.41;23.78;96595.28;5056385;28;20080;-68
2023/08/23 08:56:02;;;;;;;8.18;4.85;;;;;;;37.51;24.42;96595.56;5056099;28;20506;-69
2023/08/23 08:58:32;;;;;;;8.52;5.10;;;;;;;37.79;25.93;96596.03;5056126;28;20041;-68
2023/08/23 09:01:02;;;;;;;9.27;4.53;;;;;;;37.59;23.59;96599.81;5056078;28;20779;-68
2023/08/23 09:03:31;;;;;;;12.35;5.75;;;;;;;37.28;24.66;96590.81;5055939;28;20045;-68
2023/08/23 09:05:58;;;;;;;5.95;4.70;;;;;;;36.79;22.73;96592.41;5055906;28;20091;-68
2023/08/23 09:08:27;;;;;;;11.60;5.25;;;;;;;36.21;23.96;96586.19;5056080;28;20052;-68
2023/08/23 09:10:54;;;;;;;9.35;5.38;;;;;;;35.58;25.10;96587.81;5055977;28;20049;-68
2023/08/23 09:13:21;;;;;;;5.85;5.00;;;;;;;35.28;25.75;96578.34;5055799;28;20044;-68
2023/08/23 09:15:49;;;;;;;8.52;5.25;;;;;;;35.42;26.11;96588.09;5055290;28;20509;-68
2023/08/23 09:18:20;;;;;;;10.75;5.90;;;;;;;34.89;25.91;96587.25;5055888;28;20521;-68
2023/08/23 09:20:47;;;;;;;7.95;4.97;;;;;;;34.77;25.94;96578.91;5055389;28;20053;-69
2023/08/23 09:23:14;;;;;;;9.10;5.45;;;;;;;35.16;26.17;96567.28;5055882;28;20524;-68
2023/08/23 09:25:42;;;;;;;10.13;4.70;;;;;;;35.45;25.91;96559.66;5055630;28;20049;-68
2023/08/23 09:28:13;;;;;;;5.75;4.68;;;;;;;35.51;25.77;96564.22;5055716;28;20041;-68
2023/08/23 09:30:41;;;;;;;8.55;5.30;;;;;;;35.38;25.50;96565.13;5055940;28;20049;-68
2023/08/23 09:33:11;;;;;;;6.68;5.22;;;;;;;35.01;25.78;96567.56;5055804;28;20073;-68
2023/08/23 09:35:48;;;;;;;10.02;5.63;;;;;;;34.72;26.07;96558.84;5055571;28;20049;-68
2023/08/23 09:38:19;;;;;;;8.20;5.20;;;;;;;34.86;26.93;96555.09;5055493;28;20124;-68
2023/08/23 09:40:49;;;;;;;8.02;5.13;;;;;;;35.11;25.92;96553.50;5055322;28;20045;-68
2023/08/23 09:43:17;;;;;;;;;;;;;;;35.50;26.21;96546.25;5055658;28;20049;-68
2023/08/23 09:45:45;;;;;;;5.65;5.10;;;;;;;35.65;25.22;96561.41;5055189;28;20007;-68
2023/08/23 09:48:13;;;;;;;7.35;5.50;;;;;;;35.26;25.93;96551.41;5055250;28;20106;-68
2023/08/23 09:50:40;;;;;;;6.72;5.00;;;;;;;35.18;26.72;96545.38;5055341;28;20053;-68
2023/08/23 09:53:13;;;;;;;6.63;5.00;;;;;;;35.04;26.95;96545.41;5055009;28;20049;-67
2023/08/23 09:55:41;;;;;;;9.48;5.35;;;;;;;35.13;26.38;96546.84;5055186;28;20053;-68
2023/08/23 09:58:11;;;;;;;7.38;6.03;;;;;;;34.78;26.88;96539.00;5054945;28;20052;-68
2023/08/23 10:00:40;;;;;;;7.72;4.63;;;;;;;34.62;28.07;96532.97;5055295;28;20075;-68
2023/08/23 10:03:09;;;;;;;8.73;5.05;;;;;;;34.97;28.41;96534.53;5054979;28;20048;-68
2023/08/23 10:05:37;;;;;;;6.75;4.88;;;;;;;35.14;26.49;96544.94;5054782;28;20061;-68
2023/08/23 10:08:05;;;;;;;6.22;5.00;;;;;;;35.12;25.92;96539.72;5054938;28;20056;-68
2023/08/23 10:10:32;;;;;;;12.32;5.13;;;;;;;34.93;26.92;96536.03;5054728;28;20491;-68
2023/08/23 10:13:04;;;;;;;5.63;4.57;;;;;;;34.72;26.50;96539.84;5054693;28;20092;-68
2023/08/23 10:15:35;;;;;;;7.72;5.30;;;;;;;34.71;27.26;96539.03;5054580;28;20049;-68
2023/08/23 10:18:08;;;;;;;6.32;5.15;;;;;;;34.63;27.37;96541.94;5054582;28;20048;-68
2023/08/23 10:20:36;;;;;;;9.13;5.28;;;;;;;34.43;27.32;96540.09;5054534;28;20518;-68
2023/08/23 10:23:10;;;;;;;5.70;5.07;;;;;;;34.26;28.05;96537.84;5054679;28;20135;-68
2023/08/23 10:25:38;;;;;;;7.50;4.95;;;;;;;34.26;28.62;96531.56;5053963;28;20107;-68
2023/08/23 10:28:06;;;;;;;11.65;5.63;;;;;;;34.31;27.33;96529.03;5054391;28;20513;-68
2023/08/23 10:30:35;;;;;;;6.95;4.72;;;;;;;34.73;26.91;96526.06;5054394;28;20049;-69
2023/08/23 10:33:09;;;;;;;8.82;5.28;;;;;;;35.08;27.13;96521.34;5054306;28;20099;-68
2023/08/23 10:35:38;;;;;;;5.43;4.72;;;;;;;35.52;26.04;96516.13;5054341;28;20053;-68
2023/08/23 10:38:06;;;;;;;10.30;6.05;;;;;;;35.86;25.06;96515.91;5054458;28;20049;-68
2023/08/23 10:40:34;;;;;;;5.55;5.05;;;;;;;35.92;24.94;96515.88;5054264;28;20049;-69
2023/08/23 10:43:04;;;;;;;5.97;5.30;;;;;;;35.42;24.71;96514.72;5054107;28;20490;-69
2023/08/23 10:45:51;;;;;;;7.35;5.55;;;;;;;34.76;25.66;96512.06;5054053;28;20513;-68
2023/08/23 10:48:21;;;;;;;6.57;5.10;;;;;;;34.45;25.42;96513.59;5054229;28;20044;-68
2023/08/23 10:50:48;;;;;;;5.25;4.32;;;;;;;34.57;24.93;96510.22;5054215;28;20190;-68
2023/08/23 10:53:17;;;;;;;5.30;4.70;;;;;;;34.71;26.00;96514.59;5054348;28;20048;-68
2023/08/23 10:55:44;;;;;;;6.95;5.10;;;;;;;34.63;24.94;96507.50;5054073;28;20044;-68
2023/08/23 10:58:13;;;;;;;6.22;4.65;;;;;;;34.39;25.78;96512.56;5053864;28;20102;-68
2023/08/23 11:00:42;;;;;;;9.07;5.32;;;;;;;34.12;26.50;96503.56;5053790;28;20051;-68
2023/08/23 11:03:12;;;;;;;9.07;5.53;;;;;;;33.80;26.95;96497.97;5053971;28;20052;-68
2023/08/23 11:05:44;;;;;;;9.05;5.72;;;;;;;33.49;27.14;96497.47;5053915;28;20114;-68
2023/08/23 11:08:12;;;;;;;9.48;5.43;;;;;;;33.41;28.64;96495.81;5053714;28;20056;-68
2023/08/23 11:10:39;;;;;;;8.82;5.95;;;;;;;33.32;28.23;96495.19;5053573;28;20102;-68
2023/08/23 11:13:06;;;;;;;12.30;5.15;;;;;;;33.27;27.73;96493.06;5053551;28;20045;-68
2023/08/23 11:15:34;;;;;;;7.32;5.32;;;;;;;33.30;28.56;96490.97;5053348;28;20053;-68
2023/08/23 11:18:02;;;;;;;6.70;5.35;;;;;;;33.33;27.23;96486.00;5053497;28;20470;-68
2023/08/23 11:20:31;;;;;;;10.73;4.95;;;;;;;33.56;27.05;96470.41;5053311;28;20045;-68
2023/08/23 11:22:58;;;;;;;6.28;4.63;;;;;;;33.73;27.59;96466.25;5053473;28;20064;-68
2023/08/23 11:25:27;;;;;;;7.00;5.57;;;;;;;33.77;26.66;96481.06;5053533;28;20071;-68
2023/08/23 11:27:54;;;;;;;6.72;5.03;;;;;;;33.72;26.30;96480.88;5053582;28;20049;-68
2023/08/23 11:30:21;;;;;;;6.25;5.32;;;;;;;33.66;27.24;96478.97;5053456;28;20041;-68